Terminal Aerodrome Forecast
Issued by NWS Chicago, IL

Home | Current Version | Previous Version | Text Only | Print | Product List | Glossary Off
Versions: 1 2 3 4 5 6 7 8 9 10 11 12 13 14 15 16 17 18 19 20 21 22 23

000
FTUS43 KLOT 220903 AAA
TAFRFD
TAF AMD
KRFD 220903Z 2209/2306 21009KT P6SM -SHRA VCTS FEW030 SCT060CB
      BKN120
      TEMPO 2209/2212 5SM -TSRA BKN035CB
     FM221400 20005KT P6SM SCT080 BKN250
     FM222000 35004KT P6SM BKN040=

USA.gov is the U.S. government's official web portal to all federal, state and local government web resources and services.